Time;durP1;ratioP1;P1;durP2;ratioP2;P2;SDS_P1;SDS_P2;PMS_P1;PMS_P2;Temp;Humidity;BMP_temperature;BMP_pressure;BME280_temperature;BME280_humidity;BME280_pressure;Samples;Min_cycle;Max_cycle;Signal;HPM_P1;HPM_P2
2023/08/25 00:00:37;;;;;;;3.95;1.60;;;15.00;99.90;;;;;;5090658;28;20028;-76
2023/08/25 00:03:03;;;;;;;5.82;1.33;;;15.00;99.90;;;;;;5090555;28;20051;-76
2023/08/25 00:05:29;;;;;;;6.97;1.83;;;15.00;99.90;;;;;;5090795;28;20097;-76
2023/08/25 00:07:55;;;;;;;6.35;1.52;;;15.00;99.90;;;;;;5090023;28;20052;-76
2023/08/25 00:10:22;;;;;;;4.03;1.25;;;15.00;99.90;;;;;;5089973;28;20020;-75
2023/08/25 00:12:49;;;;;;;4.25;1.35;;;15.00;99.90;;;;;;5106001;28;20027;-76
2023/08/25 00:15:14;;;;;;;5.22;1.60;;;15.00;99.90;;;;;;5089841;28;20063;-76
2023/08/25 00:17:40;;;;;;;8.48;1.58;;;15.00;99.90;;;;;;5090135;28;20504;-75
2023/08/25 00:20:10;;;;;;;4.68;1.40;;;15.00;99.90;;;;;;5090053;28;20107;-76
2023/08/25 00:22:36;;;;;;;3.35;1.42;;;15.00;99.90;;;;;;5092774;28;20107;-75
2023/08/25 00:25:03;;;;;;;6.20;1.55;;;15.00;99.90;;;;;;5094277;28;20111;-78
2023/08/25 00:27:28;;;;;;;6.28;1.63;;;15.00;99.90;;;;;;5109953;28;20032;-76
2023/08/25 00:29:54;;;;;;;3.97;1.58;;;15.00;99.90;;;;;;5094052;28;20035;-76
2023/08/25 00:32:20;;;;;;;4.22;1.27;;;15.00;99.90;;;;;;5093434;28;20024;-76
2023/08/25 00:34:46;;;;;;;5.07;1.75;;;15.00;99.90;;;;;;5094057;28;20489;-76
2023/08/25 00:37:11;;;;;;;6.47;1.83;;;15.00;99.90;;;;;;5093303;28;20032;-77
2023/08/25 00:39:38;;;;;;;6.53;1.60;;;14.90;99.90;;;;;;5093999;28;20028;-77
2023/08/25 00:42:04;;;;;;;4.07;1.88;;;15.00;99.90;;;;;;5093415;28;20538;-77
2023/08/25 00:44:31;;;;;;;5.18;1.65;;;14.90;99.90;;;;;;5093998;28;20106;-76
2023/08/25 00:46:58;;;;;;;3.45;1.60;;;14.90;99.90;;;;;;5094098;28;20028;-76
2023/08/25 00:49:24;;;;;;;4.20;1.42;;;14.90;99.90;;;;;;5075237;28;20621;-75
2023/08/25 00:51:52;;;;;;;4.20;1.50;;;14.90;99.90;;;;;;5093974;28;20040;-76
2023/08/25 00:54:21;;;;;;;5.68;1.83;;;14.90;99.90;;;;;;5092716;28;20016;-77
2023/08/25 00:56:49;;;;;;;5.03;1.40;;;14.90;99.90;;;;;;5093951;28;20024;-75
2023/08/25 00:59:16;;;;;;;8.93;1.60;;;14.90;99.90;;;;;;5093292;28;20208;-76
2023/08/25 01:01:41;;;;;;;5.95;1.70;;;14.90;99.90;;;;;;5093775;28;20053;-76
2023/08/25 01:04:07;;;;;;;3.05;1.45;;;14.80;99.90;;;;;;5093267;28;20107;-76
2023/08/25 01:06:33;;;;;;;3.88;1.52;;;14.80;99.90;;;;;;5093615;28;20039;-76
2023/08/25 01:08:59;;;;;;;3.47;1.50;;;14.80;99.90;;;;;;5093840;28;20024;-75
2023/08/25 01:11:55;;;;;;;4.10;1.30;;;14.80;99.90;;;;;;5093269;28;20026;-75
2023/08/25 01:14:26;;;;;;;3.22;1.48;;;14.90;99.90;;;;;;5092764;28;20028;-76
2023/08/25 01:16:57;;;;;;;6.05;1.92;;;14.90;99.90;;;;;;5093784;28;20024;-76
2023/08/25 01:19:44;;;;;;;3.92;1.60;;;14.90;99.90;;;;;;5092592;28;20039;-76
2023/08/25 01:22:19;;;;;;;2.63;1.25;;;14.90;99.90;;;;;;5092584;28;20555;-76
2023/08/25 01:24:48;;;;;;;5.68;1.83;;;15.00;99.90;;;;;;5093005;28;20024;-74
2023/08/25 01:27:14;;;;;;;4.45;1.90;;;14.90;99.90;;;;;;5092189;28;20361;-76
2023/08/25 01:29:45;;;;;;;4.43;2.10;;;14.90;99.90;;;;;;5108523;28;20149;-76
2023/08/25 01:32:11;;;;;;;6.03;2.20;;;14.90;99.90;;;;;;5092444;28;20146;-77
2023/08/25 01:34:37;;;;;;;5.68;2.30;;;14.90;99.90;;;;;;5092265;28;20421;-77
2023/08/25 01:37:32;;;;;;;4.90;2.00;;;14.90;99.90;;;;;;5092666;28;20377;-75
2023/08/25 01:40:07;;;;;;;6.03;2.00;;;14.90;99.90;;;;;;5092871;28;20467;-75
2023/08/25 01:42:33;;;;;;;6.13;2.50;;;14.90;99.90;;;;;;5092641;28;20103;-75
2023/08/25 01:45:02;;;;;;;4.30;2.03;;;14.90;99.90;;;;;;5092653;28;20040;-75
2023/08/25 01:47:31;;;;;;;6.15;1.90;;;14.90;99.90;;;;;;5091655;28;20020;-76
2023/08/25 01:49:57;;;;;;;5.13;2.13;;;14.90;99.90;;;;;;5092827;28;20485;-76
2023/08/25 01:52:24;;;;;;;12.05;2.60;;;15.00;99.90;;;;;;5092200;28;20035;-76
2023/08/25 01:54:50;;;;;;;5.28;2.20;;;15.00;99.90;;;;;;5091833;28;20062;-76
2023/08/25 01:57:16;;;;;;;13.75;2.72;;;14.90;99.90;;;;;;5092339;28;20140;-75
2023/08/25 01:59:42;;;;;;;3.90;2.30;;;14.90;99.90;;;;;;5092481;28;20453;-75
2023/08/25 02:02:08;;;;;;;4.55;1.90;;;14.90;99.90;;;;;;5092294;28;20024;-77
2023/08/25 02:04:33;;;;;;;4.15;2.00;;;14.80;99.90;;;;;;5091872;28;20082;-75
2023/08/25 02:06:59;;;;;;;5.00;1.95;;;14.80;99.90;;;;;;5074022;28;20030;-75
2023/08/25 02:09:25;;;;;;;5.57;2.35;;;14.70;99.90;;;;;;5091648;28;20084;-77
2023/08/25 02:11:51;;;;;;;3.83;1.88;;;14.80;99.90;;;;;;5092431;28;20507;-75
2023/08/25 02:14:16;;;;;;;5.35;2.20;;;14.80;99.90;;;;;;5091614;28;20103;-75
2023/08/25 02:16:42;;;;;;;5.35;2.20;;;14.70;99.90;;;;;;5092030;28;20116;-75
2023/08/25 02:19:08;;;;;;;5.13;2.15;;;14.80;99.90;;;;;;5073762;28;20073;-77
2023/08/25 02:21:34;;;;;;;5.85;2.05;;;14.80;99.90;;;;;;5091926;28;20024;-75
2023/08/25 02:24:00;;;;;;;6.25;1.80;;;14.80;99.90;;;;;;5091654;28;20384;-76
2023/08/25 02:26:25;;;;;;;4.30;2.00;;;14.80;99.90;;;;;;5073110;28;20032;-76
2023/08/25 02:28:51;;;;;;;2.65;1.95;;;14.70;99.90;;;;;;5091637;28;20028;-76
2023/08/25 02:31:17;;;;;;;8.43;2.40;;;14.70;99.90;;;;;;5091731;28;20103;-76
2023/08/25 02:33:42;;;;;;;8.20;2.25;;;14.70;99.90;;;;;;5093350;28;20102;-76
2023/08/25 02:36:09;;;;;;;4.15;1.95;;;14.70;99.90;;;;;;5092763;28;20024;-75
2023/08/25 02:38:35;;;;;;;3.78;1.90;;;14.60;99.90;;;;;;5091677;28;20016;-74
2023/08/25 02:41:01;;;;;;;6.90;2.20;;;14.60;99.90;;;;;;5074075;28;20107;-75
2023/08/25 02:43:26;;;;;;;5.95;2.83;;;14.60;99.90;;;;;;5092042;28;20123;-76
2023/08/25 02:45:52;;;;;;;6.80;2.70;;;14.50;99.90;;;;;;5091449;28;20036;-76
2023/08/25 02:48:18;;;;;;;9.45;3.08;;;14.50;99.90;;;;;;5091933;28;20375;-76
2023/08/25 02:50:44;;;;;;;12.70;3.15;;;14.40;99.90;;;;;;5091722;28;20028;-76
2023/08/25 02:53:09;;;;;;;9.18;2.67;;;14.40;99.90;;;;;;5092376;28;20028;-76
2023/08/25 02:55:35;;;;;;;10.70;3.22;;;14.30;99.90;;;;;;5092443;28;20024;-76
2023/08/25 02:58:01;;;;;;;6.75;2.53;;;14.30;99.90;;;;;;5093162;28;20073;-75
2023/08/25 03:00:26;;;;;;;10.40;3.08;;;14.30;99.90;;;;;;5091160;28;20032;-75
2023/08/25 03:02:53;;;;;;;8.90;3.22;;;14.30;99.90;;;;;;5091583;28;20020;-74
2023/08/25 03:05:21;;;;;;;6.45;2.88;;;14.30;99.90;;;;;;5090658;28;20028;-76
2023/08/25 03:07:47;;;;;;;7.80;3.10;;;14.30;99.90;;;;;;5091115;28;20071;-74
2023/08/25 03:10:12;;;;;;;8.70;3.00;;;14.30;99.90;;;;;;5090675;28;20059;-77
2023/08/25 03:12:38;;;;;;;5.55;2.53;;;14.20;99.90;;;;;;5090560;28;20380;-76
2023/08/25 03:15:04;;;;;;;5.65;2.65;;;14.20;99.90;;;;;;5090978;28;20487;-74
2023/08/25 03:17:30;;;;;;;9.13;2.92;;;14.20;99.90;;;;;;5090214;28;20073;-76
2023/08/25 03:19:56;;;;;;;6.00;2.08;;;14.20;99.90;;;;;;5090850;28;20032;-75
2023/08/25 03:22:22;;;;;;;7.65;2.42;;;14.20;99.90;;;;;;5090148;28;20469;-76
2023/08/25 03:24:47;;;;;;;7.20;2.38;;;14.30;99.90;;;;;;5090829;28;20054;-75
2023/08/25 03:27:13;;;;;;;5.70;2.80;;;14.20;99.90;;;;;;5090358;28;20469;-77
2023/08/25 03:29:42;;;;;;;5.15;2.63;;;14.10;99.90;;;;;;5072165;28;20059;-76
2023/08/25 03:32:08;;;;;;;6.15;2.75;;;14.10;99.90;;;;;;5091091;28;20442;-76
2023/08/25 03:34:33;;;;;;;9.65;3.10;;;14.10;99.90;;;;;;5090222;28;20031;-76
2023/08/25 03:36:59;;;;;;;5.55;3.22;;;14.00;99.90;;;;;;5090587;28;20024;-75
2023/08/25 03:39:26;;;;;;;6.00;3.47;;;14.00;99.90;;;;;;5089993;28;20021;-75
2023/08/25 03:41:52;;;;;;;5.45;3.70;;;13.90;99.90;;;;;;5090211;28;20465;-75
2023/08/25 03:44:17;;;;;;;5.03;3.33;;;13.90;99.90;;;;;;5089876;28;20094;-76
2023/08/25 03:46:44;;;;;;;9.18;4.38;;;13.90;99.90;;;;;;5090170;28;20054;-76
2023/08/25 03:49:10;;;;;;;8.40;4.28;;;13.80;99.90;;;;;;5090261;28;20068;-76
2023/08/25 03:51:36;;;;;;;10.68;3.72;;;13.80;99.90;;;;;;5089680;28;20207;-76
2023/08/25 03:54:02;;;;;;;7.68;4.43;;;13.80;99.90;;;;;;5090485;28;20028;-76
2023/08/25 03:56:28;;;;;;;6.18;4.63;;;13.80;99.90;;;;;;5089168;28;20039;-76
2023/08/25 03:58:53;;;;;;;6.00;4.07;;;13.80;99.90;;;;;;5090617;28;20036;-76
2023/08/25 04:01:19;;;;;;;7.93;4.50;;;13.80;99.90;;;;;;5089629;28;20099;-76
2023/08/25 04:03:45;;;;;;;9.32;4.15;;;13.90;99.90;;;;;;5072083;28;20442;-75
2023/08/25 04:06:10;;;;;;;10.52;4.35;;;13.90;99.90;;;;;;5089921;28;20032;-75
2023/08/25 04:08:36;;;;;;;10.63;4.15;;;13.90;99.90;;;;;;5089262;28;20553;-75
2023/08/25 04:11:02;;;;;;;6.07;4.60;;;13.90;99.90;;;;;;5089870;28;20036;-76
2023/08/25 04:13:28;;;;;;;9.10;4.50;;;14.00;99.90;;;;;;5089599;28;20028;-75
2023/08/25 04:15:56;;;;;;;8.38;4.88;;;14.00;99.90;;;;;;5089786;28;20035;-76
2023/08/25 04:18:22;;;;;;;7.85;4.35;;;14.00;99.90;;;;;;5089421;28;20145;-76
2023/08/25 04:20:48;;;;;;;7.15;4.50;;;14.00;99.90;;;;;;5089469;28;20493;-75
2023/08/25 04:23:13;;;;;;;9.15;4.50;;;14.10;99.90;;;;;;5090257;28;20173;-75
2023/08/25 04:25:39;;;;;;;6.93;4.10;;;14.10;99.90;;;;;;5088805;28;20089;-76
2023/08/25 04:28:05;;;;;;;7.55;3.55;;;14.10;99.90;;;;;;5089980;28;20028;-75
2023/08/25 04:30:31;;;;;;;5.95;4.30;;;14.10;99.90;;;;;;5089227;28;20028;-76
2023/08/25 04:32:56;;;;;;;7.65;3.95;;;14.10;99.90;;;;;;5089790;28;20033;-76
2023/08/25 04:35:22;;;;;;;7.70;4.25;;;14.00;99.90;;;;;;5089256;28;20059;-76
2023/08/25 04:37:48;;;;;;;8.18;4.25;;;14.00;99.90;;;;;;5089674;28;20452;-75
2023/08/25 04:40:14;;;;;;;8.52;4.97;;;13.90;99.90;;;;;;5089875;28;20050;-75
2023/08/25 04:42:41;;;;;;;7.88;5.03;;;13.90;99.90;;;;;;5088834;28;20028;-75
2023/08/25 04:45:08;;;;;;;6.95;4.57;;;13.90;99.90;;;;;;5089713;28;20483;-75
2023/08/25 04:47:34;;;;;;;12.77;4.55;;;13.90;99.90;;;;;;5089072;28;20020;-76
2023/08/25 04:50:07;;;;;;;10.57;4.65;;;14.00;99.90;;;;;;5089949;28;20461;-75
2023/08/25 04:52:34;;;;;;;9.77;4.75;;;13.90;99.90;;;;;;5089206;28;20495;-76
2023/08/25 04:55:02;;;;;;;8.25;3.83;;;14.00;99.90;;;;;;5089338;28;20032;-75
2023/08/25 04:57:28;;;;;;;10.20;3.95;;;14.00;99.90;;;;;;5089083;28;20020;-76
2023/08/25 04:59:53;;;;;;;8.50;3.75;;;14.00;99.90;;;;;;5089357;28;20460;-75
2023/08/25 05:02:19;;;;;;;7.05;3.10;;;13.90;99.90;;;;;;5089584;28;20037;-77
2023/08/25 05:04:45;;;;;;;7.00;3.00;;;13.90;99.90;;;;;;5088905;28;20033;-76
2023/08/25 05:07:11;;;;;;;10.23;3.47;;;13.80;99.90;;;;;;5089226;28;20120;-74
2023/08/25 05:09:37;;;;;;;4.65;3.50;;;13.80;99.90;;;;;;5091484;28;20063;-76
2023/08/25 05:12:02;;;;;;;7.95;3.45;;;13.90;99.90;;;;;;5092526;28;20039;-76
2023/08/25 05:14:29;;;;;;;6.75;3.20;;;13.80;99.90;;;;;;5092469;28;20493;-76
2023/08/25 05:16:54;;;;;;;6.38;2.88;;;13.90;99.90;;;;;;5074686;28;20115;-76
2023/08/25 05:19:20;;;;;;;8.85;2.83;;;13.90;99.90;;;;;;5092916;28;20115;-77
2023/08/25 05:21:46;;;;;;;8.05;2.53;;;13.90;99.90;;;;;;5092617;28;20024;-74
2023/08/25 05:24:15;;;;;;;7.82;2.70;;;13.90;99.90;;;;;;5093057;28;20524;-75
2023/08/25 05:26:41;;;;;;;5.75;2.28;;;13.90;99.90;;;;;;5091906;28;20059;-75
2023/08/25 05:29:06;;;;;;;3.90;2.10;;;13.90;99.90;;;;;;5092741;28;20160;-75
2023/08/25 05:31:32;;;;;;;6.30;2.38;;;14.00;99.90;;;;;;5092476;28;20142;-75
2023/08/25 05:33:58;;;;;;;6.10;2.17;;;14.00;99.90;;;;;;5093003;28;20032;-76
2023/08/25 05:36:24;;;;;;;5.03;2.13;;;13.90;99.90;;;;;;5092223;28;20434;-76
2023/08/25 05:38:50;;;;;;;5.38;1.75;;;14.00;99.90;;;;;;5092571;28;20035;-76
2023/08/25 05:41:16;;;;;;;4.28;2.05;;;14.00;99.90;;;;;;5092365;28;20020;-76
2023/08/25 05:43:42;;;;;;;3.65;1.80;;;13.90;99.90;;;;;;5091579;28;20173;-75
2023/08/25 05:46:07;;;;;;;4.55;1.80;;;14.00;99.90;;;;;;5092690;28;20071;-75
2023/08/25 05:48:33;;;;;;;5.97;1.88;;;13.90;99.90;;;;;;5091947;28;20023;-75
2023/08/25 05:50:59;;;;;;;4.50;1.55;;;14.00;99.90;;;;;;5092498;28;20024;-75
2023/08/25 05:53:24;;;;;;;4.25;1.70;;;14.00;99.90;;;;;;5091985;28;20332;-77
2023/08/25 05:55:50;;;;;;;5.40;1.80;;;14.10;99.90;;;;;;5092686;28;20115;-76
2023/08/25 05:58:16;;;;;;;4.78;1.73;;;14.10;99.90;;;;;;5092645;28;20122;-76
2023/08/25 06:00:42;;;;;;;4.88;1.65;;;14.10;99.90;;;;;;5092332;28;20097;-76
2023/08/25 06:03:08;;;;;;;2.97;1.35;;;14.20;99.90;;;;;;5092629;28;20125;-75
2023/08/25 06:05:34;;;;;;;6.80;1.38;;;14.20;99.90;;;;;;5092280;28;20141;-75
2023/08/25 06:08:00;;;;;;;5.80;1.63;;;14.20;99.90;;;;;;5092656;28;20052;-76
2023/08/25 06:10:26;;;;;;;6.18;2.10;;;14.20;99.90;;;;;;5091907;28;20024;-77
2023/08/25 06:12:52;;;;;;;8.05;1.48;;;14.20;99.90;;;;;;5092196;28;20024;-76
2023/08/25 06:15:18;;;;;;;8.15;1.30;;;14.20;99.90;;;;;;5073960;28;20068;-75
2023/08/25 06:17:44;;;;;;;2.22;1.67;;;14.20;99.90;;;;;;5091376;28;20104;-76
2023/08/25 06:20:12;;;;;;;4.88;1.40;;;14.20;99.90;;;;;;5073607;28;20119;-75
2023/08/25 06:22:38;;;;;;;4.20;1.55;;;14.30;99.90;;;;;;5091173;28;20039;-75
2023/08/25 06:25:04;;;;;;;6.32;2.03;;;14.30;99.90;;;;;;5092482;28;20065;-75
2023/08/25 06:27:31;;;;;;;4.60;1.52;;;14.30;99.90;;;;;;5091105;28;20039;-76
2023/08/25 06:29:56;;;;;;;4.30;1.58;;;14.30;99.90;;;;;;5091569;28;20028;-75
2023/08/25 06:32:23;;;;;;;8.57;1.73;;;14.40;99.90;;;;;;5073362;28;20044;-75
2023/08/25 06:34:51;;;;;;;4.80;1.42;;;14.30;99.90;;;;;;5073223;28;20089;-75
2023/08/25 06:37:17;;;;;;;5.07;1.88;;;14.30;99.90;;;;;;5091363;28;20126;-76
2023/08/25 06:39:45;;;;;;;3.22;1.48;;;14.40;99.90;;;;;;5091158;28;20028;-75
2023/08/25 06:42:11;;;;;;;4.10;1.80;;;14.40;99.90;;;;;;5091601;28;20456;-76
2023/08/25 06:44:37;;;;;;;4.35;1.67;;;14.40;99.90;;;;;;5090667;28;20079;-76
2023/08/25 06:47:03;;;;;;;3.53;1.50;;;14.40;99.90;;;;;;5091490;28;20056;-75
2023/08/25 06:49:29;;;;;;;6.38;1.73;;;14.50;99.90;;;;;;5090629;28;20067;-76
2023/08/25 06:51:55;;;;;;;4.78;1.73;;;14.60;99.90;;;;;;5091526;28;20055;-75
2023/08/25 06:54:21;;;;;;;4.72;1.45;;;14.70;99.90;;;;;;5091424;28;20357;-74
2023/08/25 06:56:47;;;;;;;5.15;1.92;;;14.80;99.90;;;;;;5091156;28;20032;-75
2023/08/25 06:59:14;;;;;;;2.08;1.30;;;15.00;99.90;;;;;;5091473;28;20149;-75
2023/08/25 07:01:40;;;;;;;5.60;1.40;;;15.10;99.90;;;;;;5090673;28;20052;-75
2023/08/25 07:04:06;;;;;;;4.45;1.67;;;15.30;99.90;;;;;;5072804;28;20059;-75
2023/08/25 07:06:31;;;;;;;5.00;1.58;;;15.30;99.90;;;;;;5090509;28;20032;-75
2023/08/25 07:08:57;;;;;;;5.95;1.65;;;15.50;99.90;;;;;;5091294;28;20035;-75
2023/08/25 07:11:26;;;;;;;2.25;1.65;;;15.60;99.90;;;;;;5091768;28;20051;-75
2023/08/25 07:13:52;;;;;;;3.65;1.58;;;15.70;99.90;;;;;;5090706;28;20022;-76
2023/08/25 07:16:17;;;;;;;5.65;1.73;;;15.70;99.90;;;;;;5090426;28;20111;-75
2023/08/25 07:18:43;;;;;;;4.20;1.70;;;15.70;99.90;;;;;;5091341;28;20085;-76
2023/08/25 07:21:11;;;;;;;3.05;1.48;;;15.60;99.90;;;;;;5092023;28;20028;-75
2023/08/25 07:23:37;;;;;;;3.38;1.45;;;15.50;99.90;;;;;;5090604;28;20028;-76
2023/08/25 07:26:03;;;;;;;3.97;1.30;;;15.50;99.90;;;;;;5090913;28;20101;-76
2023/08/25 07:28:30;;;;;;;4.28;1.50;;;15.50;99.90;;;;;;5090967;28;20469;-79
2023/08/25 07:30:56;;;;;;;5.13;2.00;;;15.50;99.90;;;;;;5072812;28;20028;-76
2023/08/25 07:33:23;;;;;;;7.47;1.30;;;15.50;99.90;;;;;;5091150;28;20074;-75
2023/08/25 07:35:49;;;;;;;2.28;1.20;;;15.60;99.90;;;;;;5091202;28;20032;-75
2023/08/25 07:38:14;;;;;;;5.35;1.20;;;15.70;99.90;;;;;;5072803;28;20051;-75
2023/08/25 07:40:40;;;;;;;7.85;1.85;;;15.80;99.90;;;;;;5090194;28;20032;-75
2023/08/25 07:43:07;;;;;;;3.22;1.38;;;15.90;99.90;;;;;;5090564;28;20089;-75
2023/08/25 07:45:33;;;;;;;5.45;1.60;;;16.00;99.90;;;;;;5089491;28;20055;-77
2023/08/25 07:48:01;;;;;;;5.82;1.63;;;16.00;99.90;;;;;;5090381;28;20032;-76
2023/08/25 07:50:30;;;;;;;4.32;1.60;;;16.10;99.90;;;;;;5090297;28;20040;-76
2023/08/25 07:52:57;;;;;;;4.38;1.13;;;16.20;99.90;;;;;;5090075;28;20495;-75
2023/08/25 07:55:23;;;;;;;4.97;1.38;;;16.30;99.90;;;;;;5090324;28;20028;-76
2023/08/25 07:57:50;;;;;;;4.55;1.80;;;16.40;99.90;;;;;;5090374;28;20032;-75
2023/08/25 08:00:17;;;;;;;5.30;2.03;;;16.60;99.90;;;;;;5090480;28;20063;-76
2023/08/25 08:02:47;;;;;;;5.03;1.25;;;16.50;99.90;;;;;;5089553;28;20044;-75
2023/08/25 08:05:15;;;;;;;5.25;1.30;;;16.40;99.90;;;;;;5090484;28;20039;-75
2023/08/25 08:07:43;;;;;;;6.00;1.45;;;16.40;99.90;;;;;;5089767;28;20024;-75
2023/08/25 08:10:10;;;;;;;5.65;1.50;;;16.40;99.90;;;;;;5090440;28;20031;-75
2023/08/25 08:12:35;;;;;;;6.15;1.60;;;16.20;99.90;;;;;;5089465;28;20032;-75
2023/08/25 08:15:01;;;;;;;3.65;1.20;;;16.20;99.90;;;;;;5089895;28;20033;-75
2023/08/25 08:17:28;;;;;;;6.15;1.70;;;16.20;99.90;;;;;;5090111;28;20097;-76
2023/08/25 08:19:53;;;;;;;4.60;1.65;;;16.40;99.90;;;;;;5089246;28;20652;-75
2023/08/25 08:22:19;;;;;;;4.65;1.23;;;16.40;99.90;;;;;;5089864;28;20103;-76
2023/08/25 08:24:49;;;;;;;4.43;1.50;;;16.50;99.90;;;;;;5089542;28;20318;-76
2023/08/25 08:27:15;;;;;;;4.28;1.50;;;16.60;99.90;;;;;;5090284;28;20085;-76
2023/08/25 08:29:42;;;;;;;3.90;1.45;;;16.60;99.90;;;;;;5089592;28;20027;-77
2023/08/25 08:32:08;;;;;;;7.53;1.45;;;16.70;99.90;;;;;;5089882;28;20031;-76
2023/08/25 08:34:35;;;;;;;3.63;1.58;;;16.70;99.90;;;;;;5071265;28;20111;-78
2023/08/25 08:37:00;;;;;;;6.70;1.70;;;16.80;99.90;;;;;;5090327;28;20073;-77
2023/08/25 08:39:27;;;;;;;2.60;1.13;;;16.90;99.90;;;;;;5089750;28;20431;-76
2023/08/25 08:41:53;;;;;;;5.68;1.40;;;16.90;99.90;;;;;;5089550;28;20481;-77
2023/08/25 08:44:21;;;;;;;3.30;1.60;;;16.90;99.90;;;;;;5091756;28;20113;-75
2023/08/25 08:46:49;;;;;;;5.32;1.30;;;16.90;99.90;;;;;;5092758;28;20120;-75
2023/08/25 08:49:15;;;;;;;4.95;1.45;;;16.90;99.90;;;;;;5093692;28;20489;-75
2023/08/25 08:51:45;;;;;;;12.20;2.10;;;16.90;99.90;;;;;;5074495;28;20036;-75
2023/08/25 08:54:11;;;;;;;5.05;1.40;;;17.00;99.90;;;;;;5093355;28;20085;-75
2023/08/25 08:56:37;;;;;;;4.05;1.50;;;17.00;99.90;;;;;;5093205;28;20040;-77
2023/08/25 08:59:03;;;;;;;4.10;1.65;;;17.00;99.90;;;;;;5093750;28;20032;-76
2023/08/25 09:01:31;;;;;;;2.65;0.95;;;17.00;99.90;;;;;;5093488;28;20024;-76
2023/08/25 09:04:00;;;;;;;3.92;1.45;;;17.10;99.90;;;;;;5093179;28;20870;-76
2023/08/25 09:06:31;;;;;;;5.18;1.50;;;17.30;99.90;;;;;;5093338;28;20349;-77
2023/08/25 09:09:04;;;;;;;2.25;0.95;;;17.30;99.90;;;;;;5093178;28;20032;-76
2023/08/25 09:11:30;;;;;;;4.18;1.30;;;17.40;99.90;;;;;;5092876;28;20407;-76
2023/08/25 09:13:58;;;;;;;3.97;1.13;;;17.70;99.90;;;;;;5093173;28;20053;-76
2023/08/25 09:16:25;;;;;;;2.83;1.00;;;18.00;99.90;;;;;;5092676;28;20027;-75
2023/08/25 09:18:52;;;;;;;3.30;1.20;;;18.20;99.90;;;;;;5091911;28;20430;-76
2023/08/25 09:21:21;;;;;;;4.82;1.25;;;18.40;99.90;;;;;;5092539;28;20063;-76
2023/08/25 09:23:58;;;;;;;3.60;1.20;;;18.50;99.90;;;;;;5091753;28;20447;-76
2023/08/25 09:26:25;;;;;;;3.20;1.08;;;18.40;99.90;;;;;;5092069;28;20028;-76
2023/08/25 09:28:55;;;;;;;4.30;1.15;;;18.40;99.90;;;;;;5092233;28;20035;-76
2023/08/25 09:31:25;;;;;;;3.63;1.13;;;18.60;99.90;;;;;;5092487;28;20130;-76
2023/08/25 09:33:58;;;;;;;5.25;0.88;;;18.70;99.90;;;;;;5091103;28;20149;-76
2023/08/25 09:36:23;;;;;;;;;;;18.90;99.90;;;;;;5092867;28;20036;-75
2023/08/25 09:38:49;;;;;;;2.25;1.35;;;18.90;99.90;;;;;;5092219;28;19910;-75
2023/08/25 09:41:28;;;;;;;2.22;0.93;;;18.80;99.90;;;;;;5074094;28;20078;-75
2023/08/25 09:43:58;;;;;;;5.05;1.50;;;18.70;99.90;;;;;;5092076;28;20056;-75
2023/08/25 09:46:32;;;;;;;13.85;2.05;;;18.60;99.90;;;;;;5074330;28;20138;-75
2023/08/25 09:49:14;;;;;;;4.15;1.13;;;18.40;99.90;;;;;;5091850;28;20157;-75
2023/08/25 09:51:44;;;;;;;3.38;1.10;;;18.40;99.90;;;;;;5092326;28;20024;-76
2023/08/25 09:54:17;;;;;;;4.95;1.15;;;18.20;99.90;;;;;;5073830;28;20077;-76
2023/08/25 09:56:45;;;;;;;2.85;1.10;;;18.20;99.90;;;;;;5092042;28;20025;-76
2023/08/25 09:59:13;;;;;;;5.72;1.02;;;18.10;99.90;;;;;;5092610;28;20057;-77
2023/08/25 10:01:41;;;;;;;4.20;1.20;;;18.10;99.90;;;;;;5092216;28;20069;-78
2023/08/25 10:04:07;;;;;;;5.35;1.17;;;18.10;99.90;;;;;;5091588;28;20032;-75
2023/08/25 10:06:37;;;;;;;4.95;1.10;;;18.00;99.90;;;;;;5092099;28;20058;-76
2023/08/25 10:09:07;;;;;;;5.25;1.10;;;17.90;99.90;;;;;;5092193;28;20020;-76
2023/08/25 10:11:41;;;;;;;7.53;1.30;;;17.80;99.90;;;;;;5092282;28;20031;-75
2023/08/25 10:14:10;;;;;;;9.55;1.45;;;17.50;99.90;;;;;;5092533;28;20038;-75
2023/08/25 10:16:55;;;;;;;5.43;1.23;;;17.60;99.90;;;;;;5092091;28;20119;-76
2023/08/25 10:19:28;;;;;;;5.80;1.30;;;17.60;99.90;;;;;;5092434;28;20456;-76
2023/08/25 10:21:55;;;;;;;3.58;1.23;;;17.70;99.90;;;;;;5092015;28;20039;-77
2023/08/25 10:24:22;;;;;;;5.25;1.20;;;17.70;99.90;;;;;;5092412;28;20107;-76
2023/08/25 10:26:52;;;;;;;3.47;0.73;;;17.70;99.90;;;;;;5091428;28;20036;-76
2023/08/25 10:29:20;;;;;;;4.65;1.23;;;17.60;99.90;;;;;;5092270;28;20062;-76
2023/08/25 10:32:00;;;;;;;3.83;1.35;;;17.60;99.90;;;;;;5091304;28;20024;-76
2023/08/25 10:34:33;;;;;;;3.17;1.08;;;17.50;99.90;;;;;;5092066;28;20504;-76
2023/08/25 10:37:10;;;;;;;6.38;1.27;;;17.40;99.90;;;;;;5090909;28;20358;-76
2023/08/25 10:39:56;;;;;;;7.70;1.52;;;17.30;99.90;;;;;;5091990;28;20024;-75
2023/08/25 10:42:33;;;;;;;8.23;1.38;;;17.30;99.90;;;;;;5091721;28;20032;-76
2023/08/25 10:45:04;;;;;;;3.10;1.00;;;17.20;99.90;;;;;;5091193;28;20048;-76
2023/08/25 10:47:30;;;;;;;6.60;1.38;;;17.30;99.90;;;;;;5091272;28;20118;-76
2023/08/25 10:50:00;;;;;;;7.30;1.15;;;17.50;99.90;;;;;;5091110;28;20024;-75
2023/08/25 10:52:26;;;;;;;3.30;1.40;;;17.60;99.90;;;;;;5091231;28;20458;-76
2023/08/25 10:54:53;;;;;;;6.22;1.20;;;17.70;99.90;;;;;;5090729;28;20030;-76
2023/08/25 10:57:39;;;;;;;7.15;1.02;;;17.90;99.90;;;;;;5091496;28;20020;-75
2023/08/25 11:00:24;;;;;;;8.07;1.50;;;18.00;99.90;;;;;;5090935;28;20020;-75
2023/08/25 11:02:50;;;;;;;4.20;1.00;;;18.30;99.90;;;;;;5072480;28;20024;-76
2023/08/25 11:05:28;;;;;;;4.40;1.17;;;18.40;99.90;;;;;;5091740;28;20381;-76
2023/08/25 11:07:55;;;;;;;4.95;1.15;;;18.70;99.90;;;;;;5090048;28;20036;-76
2023/08/25 11:10:27;;;;;;;6.95;1.30;;;18.80;99.90;;;;;;5091972;28;20031;-75
2023/08/25 11:12:54;;;;;;;4.35;1.27;;;18.70;99.90;;;;;;5090750;28;20423;-76
2023/08/25 11:15:22;;;;;;;5.55;0.95;;;18.60;99.90;;;;;;5091362;28;20043;-76
2023/08/25 11:17:51;;;;;;;2.70;0.85;;;18.60;99.90;;;;;;5090644;28;20024;-76
2023/08/25 11:20:17;;;;;;;5.45;1.15;;;18.60;99.90;;;;;;5072211;28;20094;-76
2023/08/25 11:22:53;;;;;;;2.67;1.23;;;18.70;99.90;;;;;;5090242;28;20404;-77
2023/08/25 11:25:19;;;;;;;3.80;1.33;;;18.80;99.90;;;;;;5091012;28;20036;-76
2023/08/25 11:27:51;;;;;;;3.22;0.93;;;18.80;99.90;;;;;;5090324;28;20028;-77
2023/08/25 11:30:18;;;;;;;3.78;1.02;;;18.80;99.90;;;;;;5072630;28;20028;-76
2023/08/25 11:32:47;;;;;;;3.35;0.90;;;18.90;99.90;;;;;;5090304;28;20460;-77
2023/08/25 11:35:13;;;;;;;3.50;1.00;;;19.00;99.90;;;;;;5090827;28;20028;-76
2023/08/25 11:37:40;;;;;;;3.05;0.88;;;19.00;99.90;;;;;;5090897;28;20028;-77
2023/08/25 11:40:17;;;;;;;4.32;0.80;;;18.90;99.90;;;;;;5090375;28;20836;-76
2023/08/25 11:42:42;;;;;;;5.50;1.15;;;18.90;99.90;;;;;;5090689;28;20024;-77
2023/08/25 11:45:09;;;;;;;3.20;1.00;;;18.90;99.90;;;;;;5090284;28;20134;-76
2023/08/25 11:47:36;;;;;;;3.83;1.15;;;18.90;99.90;;;;;;5090459;28;20099;-76
2023/08/25 11:50:04;;;;;;;2.65;0.90;;;19.00;99.90;;;;;;5090014;28;20020;-75
2023/08/25 11:52:34;;;;;;;7.78;1.05;;;19.00;99.90;;;;;;5090407;28;20024;-76
2023/08/25 11:55:00;;;;;;;3.92;1.00;;;19.10;99.90;;;;;;5089778;28;20055;-76
2023/08/25 11:57:36;;;;;;;2.70;1.10;;;19.10;99.90;;;;;;5090727;28;20028;-76
2023/08/25 12:00:03;;;;;;;6.15;1.20;;;19.30;99.90;;;;;;5089684;28;20433;-77
2023/08/25 12:02:29;;;;;;;2.78;0.98;;;19.30;99.90;;;;;;5090290;28;20028;-77
2023/08/25 12:04:59;;;;;;;4.57;0.85;;;19.30;99.90;;;;;;5089161;28;20071;-77
2023/08/25 12:07:27;;;;;;;4.63;0.95;;;19.40;99.90;;;;;;5090200;28;20035;-76
2023/08/25 12:09:57;;;;;;;2.97;0.90;;;19.50;99.90;;;;;;5089715;28;20529;-76
2023/08/25 12:12:23;;;;;;;4.65;1.05;;;19.60;99.90;;;;;;5090274;28;20032;-76
2023/08/25 12:14:53;;;;;;;3.30;0.90;;;19.60;99.90;;;;;;5089409;28;20050;-75
2023/08/25 12:17:26;;;;;;;3.33;0.85;;;19.70;99.90;;;;;;5072623;28;20450;-75
2023/08/25 12:19:52;;;;;;;;;;;19.50;99.90;;;;;;5094066;28;20377;-77
2023/08/25 12:22:18;;;;;;;5.45;1.13;;;19.50;99.90;;;;;;5094438;28;20011;-76
2023/08/25 12:24:44;;;;;;;3.88;0.70;;;19.40;99.90;;;;;;5094661;28;20410;-76
2023/08/25 12:27:11;;;;;;;2.50;0.80;;;19.50;99.90;;;;;;5094096;28;20104;-76
2023/08/25 12:29:37;;;;;;;6.13;0.80;;;19.40;99.90;;;;;;5075776;28;20336;-76
2023/08/25 12:32:12;;;;;;;4.78;0.98;;;19.40;99.90;;;;;;5093903;28;20028;-75
2023/08/25 12:34:38;;;;;;;4.53;0.80;;;19.50;99.90;;;;;;5094115;28;20052;-76
2023/08/25 12:37:03;;;;;;;2.88;0.90;;;19.50;99.90;;;;;;5093329;28;20035;-76
2023/08/25 12:39:29;;;;;;;4.70;1.42;;;19.50;99.90;;;;;;5094449;28;20111;-76
2023/08/25 12:41:55;;;;;;;4.63;0.80;;;19.30;99.90;;;;;;5093690;28;20077;-76
2023/08/25 12:44:22;;;;;;;3.38;0.82;;;19.20;99.90;;;;;;5094079;28;20542;-75
2023/08/25 12:46:47;;;;;;;3.95;1.20;;;19.10;99.90;;;;;;5093812;28;20043;-76
2023/08/25 12:49:14;;;;;;;5.65;1.08;;;19.10;99.90;;;;;;5093660;28;20027;-76